Time;durP1;ratioP1;P1;durP2;ratioP2;P2;SDS_P1;SDS_P2;PMS_P1;PMS_P2;Temp;Humidity;BMP_temperature;BMP_pressure;BME280_temperature;BME280_humidity;BME280_pressure;Samples;Min_cycle;Max_cycle;Signal;HPM_P1;HPM_P2
2024/01/01 00:02:16;;;;;;;;;;;5.30;88.60;;;;;;5000829;28;86916;-46
2024/01/01 00:04:42;;;;;;;;;;;5.30;88.60;;;;;;4999827;28;87018;-45
2024/01/01 00:07:07;;;;;;;;;;;5.20;88.50;;;;;;5001530;28;88556;-47
2024/01/01 00:09:33;;;;;;;;;;;5.20;88.50;;;;;;4995440;28;88520;-46
2024/01/01 00:11:58;;;;;;;;;;;5.30;88.60;;;;;;5000287;28;86908;-46
2024/01/01 00:14:24;;;;;;;;;;;5.20;88.50;;;;;;4999302;28;87700;-47
2024/01/01 00:16:49;;;;;;;;;;;5.30;88.50;;;;;;4998687;28;87315;-45
2024/01/01 00:19:15;;;;;;;;;;;5.30;88.60;;;;;;4999988;28;86926;-46
2024/01/01 00:21:41;;;;;;;;;;;5.30;88.50;;;;;;4992539;28;87842;-47
2024/01/01 00:24:06;;;;;;;;;;;5.20;88.50;;;;;;4998066;28;87427;-46
2024/01/01 00:26:32;;;;;;;;;;;5.30;88.50;;;;;;4999002;28;86988;-46
2024/01/01 00:28:57;;;;;;;;;;;5.30;88.50;;;;;;4995218;28;88132;-46
2024/01/01 00:31:23;;;;;;;;;;;5.30;88.50;;;;;;4994621;28;87025;-46
2024/01/01 00:33:48;;;;;;;;;;;5.20;88.50;;;;;;4998299;28;86863;-46
2024/01/01 00:36:14;;;;;;;;;;;5.20;88.50;;;;;;5002094;28;87570;-47
2024/01/01 00:38:40;;;;;;;;;;;5.30;88.50;;;;;;5000003;28;86247;-45
2024/01/01 00:41:05;;;;;;;;;;;5.30;88.60;;;;;;5000430;28;87161;-46
2024/01/01 00:43:32;;;;;;;;;;;5.30;88.70;;;;;;4994874;28;87032;-46
2024/01/01 00:45:58;;;;;;;;;;;5.20;88.60;;;;;;4998375;28;87939;-46
2024/01/01 00:48:23;;;;;;;;;;;5.30;88.60;;;;;;5002156;28;90480;-47
2024/01/01 00:50:49;;;;;;;;;;;5.30;88.70;;;;;;4994972;28;86916;-46
2024/01/01 00:53:14;;;;;;;;;;;5.30;88.70;;;;;;4998163;28;87691;-46
2024/01/01 00:55:40;;;;;;;;;;;5.20;88.60;;;;;;5004511;28;87268;-47
2024/01/01 00:58:06;;;;;;;;;;;5.30;88.70;;;;;;4996295;28;87021;-45
2024/01/01 01:00:31;;;;;;;;;;;5.30;88.70;;;;;;4993306;28;87874;-49
2024/01/01 01:02:57;;;;;;;;;;;5.30;88.70;;;;;;4998093;28;86598;-46
2024/01/01 01:05:24;;;;;;;;;;;5.30;88.70;;;;;;4998728;28;87031;-46
2024/01/01 01:07:49;;;;;;;;;;;5.30;88.70;;;;;;4999456;28;87913;-46
2024/01/01 01:10:15;;;;;;;;;;;5.30;88.80;;;;;;4996258;28;87869;-46
2024/01/01 01:12:41;;;;;;;;;;;5.20;88.70;;;;;;4997589;28;87626;-46
2024/01/01 01:15:06;;;;;;;;;;;5.30;88.80;;;;;;4994065;28;88605;-47
2024/01/01 01:17:32;;;;;;;;;;;5.30;88.70;;;;;;4994948;28;87026;-46
2024/01/01 01:19:57;;;;;;;;;;;5.20;88.60;;;;;;4997962;28;87888;-46
2024/01/01 01:22:23;;;;;;;;;;;5.20;88.70;;;;;;4998412;28;87520;-46
2024/01/01 01:24:48;;;;;;;;;;;5.20;88.80;;;;;;4998300;28;87056;-47
2024/01/01 01:27:14;;;;;;;;;;;5.20;88.70;;;;;;4995880;28;86873;-46
2024/01/01 01:29:40;;;;;;;;;;;5.30;88.70;;;;;;5001345;28;87560;-46
2024/01/01 01:32:07;;;;;;;;;;;5.20;88.70;;;;;;4997693;28;87264;-47
2024/01/01 01:34:33;;;;;;;;;;;5.30;88.70;;;;;;4994341;28;89451;-47
2024/01/01 01:36:59;;;;;;;;;;;5.20;88.70;;;;;;4998009;28;87596;-46
2024/01/01 01:39:24;;;;;;;;;;;5.30;88.80;;;;;;4997003;28;86961;-46
2024/01/01 01:41:50;;;;;;;;;;;5.30;88.90;;;;;;4996999;28;88875;-47
2024/01/01 01:44:15;;;;;;;;;;;5.20;88.80;;;;;;4991837;28;87182;-46
2024/01/01 01:46:41;;;;;;;;;;;5.30;88.70;;;;;;4998008;28;87664;-47
2024/01/01 01:49:07;;;;;;;;;;;5.30;88.70;;;;;;4995125;28;87413;-46
2024/01/01 01:51:32;;;;;;;;;;;5.30;88.70;;;;;;5002715;28;86209;-46
2024/01/01 01:53:58;;;;;;;;;;;5.20;88.60;;;;;;4994406;28;87046;-45
2024/01/01 01:56:24;;;;;;;;;;;5.20;88.70;;;;;;4996221;28;87048;-46
2024/01/01 01:58:50;;;;;;;;;;;5.20;88.70;;;;;;4999423;28;88463;-46
2024/01/01 02:01:16;;;;;;;;;;;5.30;88.70;;;;;;4994914;28;86862;-47
2024/01/01 02:03:43;;;;;;;;;;;5.30;88.70;;;;;;4997246;28;87041;-46
2024/01/01 02:06:08;;;;;;;;;;;5.30;88.80;;;;;;4995296;28;87010;-47
2024/01/01 02:08:34;;;;;;;;;;;5.20;88.70;;;;;;4996488;28;87418;-46
2024/01/01 02:10:59;;;;;;;;;;;5.20;88.70;;;;;;4999255;28;86975;-46
2024/01/01 02:13:26;;;;;;;;;;;5.30;89.00;;;;;;4999925;28;88516;-46
2024/01/01 02:15:52;;;;;;;;;;;5.30;88.90;;;;;;5000866;28;86289;-47
2024/01/01 02:18:18;;;;;;;;;;;5.30;88.80;;;;;;5000233;28;87011;-46
2024/01/01 02:20:44;;;;;;;;;;;5.20;88.80;;;;;;5005512;28;89151;-48
2024/01/01 02:23:09;;;;;;;;;;;5.30;88.90;;;;;;5005435;28;89113;-46
2024/01/01 02:25:35;;;;;;;;;;;5.20;88.80;;;;;;5003240;28;87476;-47
2024/01/01 02:28:00;;;;;;;;;;;5.30;88.80;;;;;;4999981;28;87477;-46
2024/01/01 02:30:26;;;;;;;;;;;5.30;88.90;;;;;;5001575;28;86913;-46
2024/01/01 02:32:51;;;;;;;;;;;5.30;89.00;;;;;;5003092;28;87105;-46
2024/01/01 02:35:17;;;;;;;;;;;5.30;89.00;;;;;;4998049;28;87004;-46
2024/01/01 02:37:42;;;;;;;;;;;5.30;88.90;;;;;;5001724;28;87924;-46
2024/01/01 02:40:08;;;;;;;;;;;5.30;88.80;;;;;;5000551;28;86179;-45
2024/01/01 02:42:34;;;;;;;;;;;5.30;88.90;;;;;;5007033;28;87052;-46
2024/01/01 02:45:00;;;;;;;;;;;5.30;89.00;;;;;;4999508;28;87738;-47
2024/01/01 02:47:25;;;;;;;;;;;5.20;88.90;;;;;;4999331;28;89607;-47
2024/01/01 02:49:51;;;;;;;;;;;5.20;88.90;;;;;;4996182;28;86980;-46
2024/01/01 02:52:16;;;;;;;;;;;5.30;88.90;;;;;;5000602;28;86988;-46
2024/01/01 02:54:42;;;;;;;;;;;5.30;89.00;;;;;;4998114;28;87565;-46
2024/01/01 02:57:07;;;;;;;;;;;5.20;88.90;;;;;;5000688;28;87002;-46
2024/01/01 02:59:36;;;;;;;;;;;5.30;88.90;;;;;;4996748;28;87145;-47
2024/01/01 03:02:01;;;;;;;;;;;5.20;88.90;;;;;;4997745;28;87019;-47
2024/01/01 03:04:31;;;;;;;;;;;5.30;88.90;;;;;;4997612;28;86284;-47
2024/01/01 03:06:57;;;;;;;;;;;5.20;88.80;;;;;;4998834;28;88442;-48
2024/01/01 03:09:23;;;;;;;;;;;5.20;88.80;;;;;;5002898;28;87053;-46
2024/01/01 03:11:49;;;;;;;;;;;5.30;88.80;;;;;;5002913;28;87890;-46
2024/01/01 03:14:14;;;;;;;;;;;5.20;88.90;;;;;;4997641;28;87311;-47
2024/01/01 03:16:40;;;;;;;;;;;5.20;88.80;;;;;;4998818;28;86999;-47
2024/01/01 03:19:06;;;;;;;;;;;5.30;88.90;;;;;;5001775;28;87509;-46
2024/01/01 03:21:32;;;;;;;;;;;5.20;88.80;;;;;;4996275;28;87026;-46
2024/01/01 03:23:57;;;;;;;;;;;5.20;88.80;;;;;;4998874;28;87053;-46
2024/01/01 03:26:23;;;;;;;;;;;5.20;88.90;;;;;;4998541;28;88557;-46
2024/01/01 03:28:48;;;;;;;;;;;5.20;88.80;;;;;;4999383;28;86264;-46
2024/01/01 03:31:14;;;;;;;;;;;5.20;88.90;;;;;;4996124;28;86924;-47
2024/01/01 03:33:40;;;;;;;;;;;5.20;89.50;;;;;;4995760;28;86918;-46
2024/01/01 03:36:05;;;;;;;;;;;5.20;88.90;;;;;;4996896;28;87972;-48
2024/01/01 03:38:31;;;;;;;;;;;5.20;88.80;;;;;;5002483;28;87699;-46
2024/01/01 03:40:57;;;;;;;;;;;5.20;88.90;;;;;;4999230;28;87012;-46
2024/01/01 03:43:22;;;;;;;;;;;5.20;88.80;;;;;;5007415;28;86943;-46
2024/01/01 03:45:48;;;;;;;;;;;5.20;88.80;;;;;;5002664;28;88494;-46
2024/01/01 03:48:13;;;;;;;;;;;5.20;88.80;;;;;;4995934;28;87116;-46
2024/01/01 03:50:39;;;;;;;;;;;5.20;88.80;;;;;;4999880;28;87022;-47
2024/01/01 03:53:04;;;;;;;;;;;5.30;88.90;;;;;;4993702;28;86682;-47
2024/01/01 03:55:30;;;;;;;;;;;5.20;89.40;;;;;;4997993;28;87555;-46
2024/01/01 03:57:56;;;;;;;;;;;5.20;88.90;;;;;;5004850;28;87065;-46
2024/01/01 04:00:22;;;;;;;;;;;5.20;88.90;;;;;;4995783;28;87897;-46
2024/01/01 04:02:48;;;;;;;;;;;5.20;88.90;;;;;;4995460;28;89020;-46
2024/01/01 04:05:14;;;;;;;;;;;5.20;89.00;;;;;;4998442;28;88554;-47
2024/01/01 04:07:40;;;;;;;;;;;5.20;88.90;;;;;;4996664;28;87444;-46
2024/01/01 04:10:06;;;;;;;;;;;5.30;89.00;;;;;;5001748;28;86972;-47
2024/01/01 04:12:32;;;;;;;;;;;5.20;88.90;;;;;;4995575;28;87413;-46
2024/01/01 04:14:57;;;;;;;;;;;5.20;88.90;;;;;;4994538;28;88484;-48
2024/01/01 04:17:23;;;;;;;;;;;5.20;88.90;;;;;;4997031;28;86699;-47
2024/01/01 04:19:49;;;;;;;;;;;5.20;89.00;;;;;;5006671;28;88531;-47
2024/01/01 04:22:14;;;;;;;;;;;5.20;88.90;;;;;;5000679;28;87808;-46
2024/01/01 04:24:43;;;;;;;;;;;5.20;88.90;;;;;;4998874;28;87815;-47
2024/01/01 04:27:09;;;;;;;;;;;5.20;89.00;;;;;;5000058;28;87046;-49
2024/01/01 04:29:34;;;;;;;;;;;5.20;89.10;;;;;;4999623;28;87625;-46
2024/01/01 04:32:00;;;;;;;;;;;5.20;88.90;;;;;;4996320;28;87577;-46
2024/01/01 04:34:25;;;;;;;;;;;5.20;89.00;;;;;;5002801;28;87136;-46
2024/01/01 04:36:51;;;;;;;;;;;5.20;88.90;;;;;;4999056;28;87909;-47
2024/01/01 04:39:16;;;;;;;;;;;5.20;88.90;;;;;;4996022;28;87594;-46
2024/01/01 04:41:42;;;;;;;;;;;5.20;88.80;;;;;;5001382;28;86383;-46
2024/01/01 04:44:08;;;;;;;;;;;5.20;88.80;;;;;;4995234;28;87280;-47
2024/01/01 04:46:33;;;;;;;;;;;5.20;88.90;;;;;;4998776;28;86939;-47
2024/01/01 04:48:59;;;;;;;;;;;5.20;88.90;;;;;;5004978;28;89616;-48
2024/01/01 04:51:24;;;;;;;;;;;5.20;88.90;;;;;;4998249;28;87487;-46
2024/01/01 04:53:50;;;;;;;;;;;5.20;88.80;;;;;;4995897;28;87006;-47
2024/01/01 04:56:16;;;;;;;;;;;5.30;88.90;;;;;;4996937;28;87085;-46
2024/01/01 04:58:42;;;;;;;;;;;5.20;88.80;;;;;;4998167;28;86853;-47
2024/01/01 05:01:08;;;;;;;;;;;5.30;88.80;;;;;;4995999;28;86991;-46
2024/01/01 05:03:34;;;;;;;;;;;5.30;88.90;;;;;;4997123;28;87844;-46
2024/01/01 05:05:59;;;;;;;;;;;5.30;88.90;;;;;;4998653;28;86245;-50
2024/01/01 05:08:25;;;;;;;;;;;5.30;88.90;;;;;;4999202;28;87077;-47
2024/01/01 05:10:50;;;;;;;;;;;5.20;88.90;;;;;;4996402;28;87463;-48
2024/01/01 05:13:16;;;;;;;;;;;5.30;88.90;;;;;;4994925;28;87970;-46
2024/01/01 05:15:43;;;;;;;;;;;5.20;88.80;;;;;;4995374;28;87638;-47
2024/01/01 05:18:08;;;;;;;;;;;5.20;88.70;;;;;;4995507;28;88794;-46
2024/01/01 05:20:34;;;;;;;;;;;5.30;88.80;;;;;;5005334;28;86997;-46
2024/01/01 05:22:59;;;;;;;;;;;5.30;88.80;;;;;;4998829;28;87060;-47
2024/01/01 05:25:25;;;;;;;;;;;5.20;88.70;;;;;;4999429;28;87503;-46
2024/01/01 05:27:51;;;;;;;;;;;5.20;88.70;;;;;;5001194;28;87010;-46
2024/01/01 05:30:16;;;;;;;;;;;5.20;88.80;;;;;;5001501;28;86740;-46
2024/01/01 05:32:42;;;;;;;;;;;5.20;88.70;;;;;;4995294;28;86897;-47
2024/01/01 05:35:07;;;;;;;;;;;5.20;88.70;;;;;;4998596;28;87012;-46
2024/01/01 05:37:33;;;;;;;;;;;5.20;88.70;;;;;;4994101;28;88471;-47
2024/01/01 05:39:58;;;;;;;;;;;5.20;88.80;;;;;;4994351;28;87040;-46
2024/01/01 05:42:24;;;;;;;;;;;5.20;88.80;;;;;;4996064;28;87372;-46
2024/01/01 05:44:50;;;;;;;;;;;5.20;88.80;;;;;;4993934;28;88484;-46
2024/01/01 05:47:15;;;;;;;;;;;5.20;88.80;;;;;;5000586;28;87099;-46
2024/01/01 05:49:41;;;;;;;;;;;5.20;88.90;;;;;;4995399;28;88057;-46
2024/01/01 05:52:06;;;;;;;;;;;5.20;88.80;;;;;;5000108;28;88758;-47
2024/01/01 05:54:32;;;;;;;;;;;5.20;88.90;;;;;;4994758;28;87872;-46
2024/01/01 05:56:57;;;;;;;;;;;5.20;88.90;;;;;;5004260;28;87341;-47
2024/01/01 05:59:23;;;;;;;;;;;5.20;88.90;;;;;;5001402;28;87041;-46
2024/01/01 06:01:48;;;;;;;;;;;5.20;88.90;;;;;;4999262;28;88643;-48
2024/01/01 06:04:14;;;;;;;;;;;5.20;88.80;;;;;;4995799;28;87728;-45
2024/01/01 06:06:39;;;;;;;;;;;5.20;88.80;;;;;;5006722;28;87034;-46
2024/01/01 06:09:05;;;;;;;;;;;5.20;88.80;;;;;;5005784;28;88372;-47
2024/01/01 06:11:31;;;;;;;;;;;5.20;88.80;;;;;;4995858;28;87719;-46
2024/01/01 06:13:56;;;;;;;;;;;5.20;88.80;;;;;;5001173;28;87424;-46
2024/01/01 06:16:25;;;;;;;;;;;5.20;88.90;;;;;;5003856;28;88430;-46
2024/01/01 06:18:50;;;;;;;;;;;5.20;88.90;;;;;;5000311;28;86427;-46
2024/01/01 06:21:16;;;;;;;;;;;5.20;88.80;;;;;;4998759;28;87095;-46
2024/01/01 06:23:45;;;;;;;;;;;5.20;89.60;;;;;;5002689;28;87381;-46
2024/01/01 06:26:11;;;;;;;;;;;5.20;88.90;;;;;;5001086;28;87846;-46
2024/01/01 06:28:36;;;;;;;;;;;5.20;88.90;;;;;;5004657;28;88306;-46
2024/01/01 06:31:02;;;;;;;;;;;5.20;88.80;;;;;;5000763;28;87647;-46
2024/01/01 06:33:29;;;;;;;;;;;5.20;89.20;;;;;;4996937;28;87162;-46
2024/01/01 06:35:55;;;;;;;;;;;5.20;89.10;;;;;;5000448;28;88407;-46
2024/01/01 06:38:20;;;;;;;;;;;5.20;89.00;;;;;;4998153;28;87061;-46
2024/01/01 06:40:46;;;;;;;;;;;5.20;89.10;;;;;;4993908;28;87440;-47
2024/01/01 06:43:12;;;;;;;;;;;5.30;89.30;;;;;;5002594;28;86676;-46
2024/01/01 06:45:38;;;;;;;;;;;5.20;89.30;;;;;;5000381;28;87017;-46
2024/01/01 06:48:03;;;;;;;;;;;5.20;89.30;;;;;;4999554;28;87003;-46
2024/01/01 06:50:29;;;;;;;;;;;5.30;89.20;;;;;;4997160;28;89136;-47
2024/01/01 06:52:55;;;;;;;;;;;5.20;89.60;;;;;;5001679;28;87688;-46
2024/01/01 06:55:22;;;;;;;;;;;5.30;89.40;;;;;;5007679;28;90029;-45
2024/01/01 06:57:48;;;;;;;;;;;5.30;89.40;;;;;;4992258;28;87160;-46
2024/01/01 07:00:15;;;;;;;;;;;5.30;89.40;;;;;;4994263;28;88101;-46
2024/01/01 07:02:41;;;;;;;;;;;5.30;89.40;;;;;;4998859;28;88462;-46
2024/01/01 07:05:07;;;;;;;;;;;5.30;89.40;;;;;;5000711;28;87300;-47
2024/01/01 07:07:33;;;;;;;;;;;5.30;89.30;;;;;;4996420;28;86982;-46
2024/01/01 07:09:58;;;;;;;;;;;5.30;89.30;;;;;;5002543;28;86907;-47
2024/01/01 07:12:27;;;;;;;;;;;5.30;89.10;;;;;;5006156;28;86899;-47
2024/01/01 07:14:52;;;;;;;;;;;5.30;89.10;;;;;;4999157;28;89492;-47
2024/01/01 07:17:19;;;;;;;;;;;5.30;89.30;;;;;;4996890;28;86886;-47
2024/01/01 07:19:44;;;;;;;;;;;5.30;89.30;;;;;;5002638;28;87897;-46
2024/01/01 07:22:10;;;;;;;;;;;5.30;89.20;;;;;;5002278;28;87596;-47
2024/01/01 07:24:36;;;;;;;;;;;5.30;89.00;;;;;;4997378;28;87683;-46
2024/01/01 07:27:01;;;;;;;;;;;5.30;89.00;;;;;;4996634;28;87341;-46
2024/01/01 07:29:30;;;;;;;;;;;5.30;88.80;;;;;;4998316;28;87503;-47
2024/01/01 07:31:56;;;;;;;;;;;5.30;88.70;;;;;;5002601;28;86329;-46
2024/01/01 07:34:22;;;;;;;;;;;5.30;88.70;;;;;;4996425;28;87142;-47
2024/01/01 07:36:48;;;;;;;;;;;5.30;88.90;;;;;;4994314;28;87052;-45
2024/01/01 07:39:19;;;;;;;;;;;5.30;89.10;;;;;;5000822;28;87857;-46
2024/01/01 07:41:45;;;;;;;;;;;5.40;88.90;;;;;;4998087;28;87512;-47
2024/01/01 07:44:11;;;;;;;;;;;5.40;88.70;;;;;;4997693;28;87015;-47
2024/01/01 07:46:36;;;;;;;;;;;5.40;88.40;;;;;;5000978;28;88060;-47
2024/01/01 07:49:04;;;;;;;;;;;5.40;88.20;;;;;;4997115;28;87581;-46
2024/01/01 07:51:29;;;;;;;;;;;5.40;88.20;;;;;;4996976;28;87840;-45
2024/01/01 07:53:55;;;;;;;;;;;5.40;88.20;;;;;;4999323;28;87768;-47
2024/01/01 07:56:20;;;;;;;;;;;5.40;88.20;;;;;;5000009;28;87850;-47
2024/01/01 07:58:46;;;;;;;;;;;5.40;88.20;;;;;;4994467;28;87289;-46
2024/01/01 08:01:15;;;;;;;;;;;5.40;88.20;;;;;;4998092;28;88458;-46
2024/01/01 08:03:41;;;;;;;;;;;5.40;88.30;;;;;;5001434;28;88010;-46
2024/01/01 08:06:06;;;;;;;;;;;5.40;88.40;;;;;;4996668;28;87694;-46
2024/01/01 08:08:32;;;;;;;;;;;5.40;88.50;;;;;;4999779;28;87567;-47
2024/01/01 08:10:57;;;;;;;;;;;5.40;88.50;;;;;;4994479;28;87132;-47
2024/01/01 08:13:23;;;;;;;;;;;5.40;88.40;;;;;;5001074;28;86962;-47
2024/01/01 08:15:49;;;;;;;;;;;5.40;88.50;;;;;;5000861;28;87003;-45
2024/01/01 08:18:15;;;;;;;;;;;5.40;88.70;;;;;;4994322;28;88004;-46
2024/01/01 08:20:41;;;;;;;;;;;5.40;88.90;;;;;;4997290;28;86664;-46
2024/01/01 08:23:06;;;;;;;;;;;5.40;88.80;;;;;;5001709;28;87121;-47
2024/01/01 08:25:32;;;;;;;;;;;5.40;89.10;;;;;;4999607;28;86849;-46
2024/01/01 08:27:58;;;;;;;;;;;5.40;89.20;;;;;;4994438;28;89584;-46
2024/01/01 08:30:23;;;;;;;;;;;5.40;89.20;;;;;;4999233;28;87036;-47
2024/01/01 08:32:49;;;;;;;;;;;5.50;89.50;;;;;;4995109;28;87065;-46
2024/01/01 08:35:14;;;;;;;;;;;5.50;89.50;;;;;;4993411;28;88676;-46
2024/01/01 08:37:42;;;;;;;;;;;5.50;89.60;;;;;;4999090;28;87984;-46
2024/01/01 08:40:09;;;;;;;;;;;5.50;89.60;;;;;;4993643;28;88630;-46
2024/01/01 08:42:35;;;;;;;;;;;5.50;89.70;;;;;;4995283;28;86957;-46
2024/01/01 08:45:02;;;;;;;;;;;5.50;89.60;;;;;;5001516;28;87137;-46
2024/01/01 08:47:27;;;;;;;;;;;5.50;89.80;;;;;;4994754;28;87736;-47
2024/01/01 08:49:53;;;;;;;;;;;5.50;89.80;;;;;;4995921;28;87161;-47
2024/01/01 08:52:18;;;;;;;;;;;5.50;89.80;;;;;;4994671;28;87897;-46
2024/01/01 08:54:44;;;;;;;;;;;5.50;89.80;;;;;;4996640;28;87511;-46
2024/01/01 08:57:10;;;;;;;;;;;5.50;89.90;;;;;;4999521;28;87108;-46
2024/01/01 08:59:35;;;;;;;;;;;5.50;90.00;;;;;;4997738;28;86943;-47
2024/01/01 09:02:01;;;;;;;;;;;5.50;90.00;;;;;;4994191;28;86944;-46
2024/01/01 09:04:26;;;;;;;;;;;5.50;90.00;;;;;;4998192;28;87628;-46
2024/01/01 09:06:52;;;;;;;;;;;5.50;90.00;;;;;;4992198;28;87743;-46
2024/01/01 09:09:18;;;;;;;;;;;5.50;90.10;;;;;;4998468;28;86356;-46
2024/01/01 09:11:47;;;;;;;;;;;5.50;90.10;;;;;;4998974;28;86987;-46
2024/01/01 09:14:12;;;;;;;;;;;5.50;90.20;;;;;;4996898;28;88779;-47
2024/01/01 09:16:38;;;;;;;;;;;5.50;90.10;;;;;;4999315;28;89035;-46
2024/01/01 09:19:04;;;;;;;;;;;5.60;90.30;;;;;;4995154;28;87533;-47
2024/01/01 09:21:30;;;;;;;;;;;5.60;90.20;;;;;;4997380;28;88553;-47
2024/01/01 09:24:00;;;;;;;;;;;5.60;90.20;;;;;;4997267;28;87097;-46
2024/01/01 09:26:27;;;;;;;;;;;5.60;90.30;;;;;;4992443;28;88532;-47
2024/01/01 09:28:52;;;;;;;;;;;5.60;90.30;;;;;;4993898;28;86954;-47
2024/01/01 09:31:18;;;;;;;;;;;5.60;90.30;;;;;;4998022;28;87780;-47
2024/01/01 09:33:43;;;;;;;;;;;5.60;90.30;;;;;;4993729;28;87793;-46
2024/01/01 09:36:11;;;;;;;;;;;5.60;90.30;;;;;;4990318;28;87468;-47
2024/01/01 09:38:37;;;;;;;;;;;5.60;90.40;;;;;;4999686;28;86802;-47
2024/01/01 09:41:02;;;;;;;;;;;5.60;90.30;;;;;;4996873;28;88631;-46
2024/01/01 09:43:28;;;;;;;;;;;5.60;90.40;;;;;;4998754;28;87017;-46
2024/01/01 09:45:54;;;;;;;;;;;5.60;90.40;;;;;;4993371;28;87511;-46
2024/01/01 09:48:20;;;;;;;;;;;5.60;90.40;;;;;;4998279;28;86665;-47
2024/01/01 09:50:48;;;;;;;;;;;5.70;90.50;;;;;;4993407;28;88028;-47
2024/01/01 09:53:14;;;;;;;;;;;5.70;90.40;;;;;;4995062;28;89069;-48
2024/01/01 09:55:39;;;;;;;;;;;5.70;90.50;;;;;;4998485;28;86868;-46
2024/01/01 09:58:05;;;;;;;;;;;5.70;90.50;;;;;;4995847;28;86663;-48
2024/01/01 10:00:30;;;;;;;;;;;5.70;90.50;;;;;;4998321;28;87349;-46
2024/01/01 10:03:06;;;;;;;;;;;5.70;90.50;;;;;;4992774;28;87133;-45
2024/01/01 10:05:31;;;;;;;;;;;5.70;90.40;;;;;;5000218;28;87909;-46
2024/01/01 10:08:07;;;;;;;;;;;5.70;90.50;;;;;;4996657;28;87681;-46
2024/01/01 10:10:32;;;;;;;;;;;5.70;90.50;;;;;;4994344;28;88745;-46
2024/01/01 10:13:24;;;;;;;;;;;5.80;90.50;;;;;;4995762;28;87423;-46
2024/01/01 10:15:55;;;;;;;;;;;5.80;90.50;;;;;;4997679;28;86849;-46
2024/01/01 10:18:21;;;;;;;;;;;5.70;90.50;;;;;;4998455;28;88406;-46
2024/01/01 10:20:47;;;;;;;;;;;5.70;90.50;;;;;;4995139;28;88590;-46
2024/01/01 10:23:22;;;;;;;;;;;5.80;90.60;;;;;;4994635;28;86209;-47
2024/01/01 10:26:03;;;;;;;;;;;5.80;90.60;;;;;;4994396;28;86935;-48
2024/01/01 10:28:30;;;;;;;;;;;5.80;90.60;;;;;;4993967;28;87027;-47
2024/01/01 10:30:56;;;;;;;;;;;5.80;90.60;;;;;;4995592;28;87721;-46
2024/01/01 10:33:21;;;;;;;;;;;5.80;90.60;;;;;;4998152;28;87483;-47
2024/01/01 10:35:47;;;;;;;;;;;5.80;90.70;;;;;;4997861;28;88465;-47
2024/01/01 10:38:13;;;;;;;;;;;5.80;90.70;;;;;;5002752;28;88003;-47
2024/01/01 10:40:40;;;;;;;;;;;5.80;90.70;;;;;;4997885;28;87445;-46
2024/01/01 10:43:07;;;;;;;;;;;5.80;90.70;;;;;;5002422;28;87170;-46
2024/01/01 10:45:32;;;;;;;;;;;5.80;90.70;;;;;;4996989;28;86873;-46
2024/01/01 10:47:59;;;;;;;;;;;5.80;90.70;;;;;;5002745;28;86597;-47
2024/01/01 10:50:24;;;;;;;;;;;5.90;90.70;;;;;;4998920;28;87543;-46
2024/01/01 10:52:53;;;;;;;;;;;5.90;90.70;;;;;;5001622;28;88946;-46
2024/01/01 10:55:45;;;;;;;;;;;5.90;90.70;;;;;;4996730;28;88037;-47
2024/01/01 10:58:16;;;;;;;;;;;5.90;90.60;;;;;;4991695;28;87757;-47
2024/01/01 11:00:53;;;;;;;;;;;5.90;90.70;;;;;;4999949;28;88698;-47
2024/01/01 11:03:19;;;;;;;;;;;5.90;90.80;;;;;;5000222;28;86841;-47
2024/01/01 11:05:47;;;;;;;;;;;5.90;90.80;;;;;;4997311;28;87713;-46
2024/01/01 11:08:12;;;;;;;;;;;5.90;90.80;;;;;;4999380;28;88585;-46
2024/01/01 11:10:42;;;;;;;;;;;5.90;90.80;;;;;;4999119;28;87041;-47
2024/01/01 11:13:12;;;;;;;;;;;5.90;90.90;;;;;;4998091;28;87848;-48
2024/01/01 11:15:42;;;;;;;;;;;5.90;90.90;;;;;;4998693;28;87089;-46
2024/01/01 11:18:14;;;;;;;;;;;5.90;91.00;;;;;;4998594;28;87990;-48
2024/01/01 11:20:53;;;;;;;;;;;5.90;91.30;;;;;;4996111;28;89383;-46
2024/01/01 11:23:48;;;;;;;;;;;5.90;90.90;;;;;;4998130;28;87103;-46
2024/01/01 11:26:22;;;;;;;;;;;5.90;91.00;;;;;;4987173;28;87091;-46
2024/01/01 11:28:57;;;;;;;;;;;6.00;91.00;;;;;;4995720;28;87386;-48
2024/01/01 11:31:26;;;;;;;;;;;6.00;91.00;;;;;;5000233;28;86891;-46
2024/01/01 11:33:59;;;;;;;;;;;6.00;91.00;;;;;;5002711;28;87963;-46
2024/01/01 11:36:25;;;;;;;;;;;6.00;91.00;;;;;;4997354;28;87130;-49
2024/01/01 11:38:51;;;;;;;;;;;6.00;91.10;;;;;;5000228;28;86763;-46
2024/01/01 11:41:26;;;;;;;;;;;6.10;91.10;;;;;;4999028;28;88561;-46
2024/01/01 11:43:52;;;;;;;;;;;6.00;91.20;;;;;;4997645;28;87004;-46
2024/01/01 11:46:25;;;;;;;;;;;6.00;91.10;;;;;;5002909;28;88001;-49
2024/01/01 11:48:54;;;;;;;;;;;6.00;91.20;;;;;;4999348;28;88575;-46
2024/01/01 11:51:20;;;;;;;;;;;6.00;91.20;;;;;;4997061;28;87021;-47
2024/01/01 11:53:45;;;;;;;;;;;6.00;91.30;;;;;;4995444;28;87190;-46
2024/01/01 11:56:11;;;;;;;;;;;6.00;91.30;;;;;;4998087;28;88083;-47
2024/01/01 11:58:37;;;;;;;;;;;6.10;91.40;;;;;;4998974;28;87898;-47
2024/01/01 12:01:02;;;;;;;;;;;6.00;91.20;;;;;;4993420;28;87671;-46
2024/01/01 12:03:29;;;;;;;;;;;6.10;91.40;;;;;;5000212;28;86404;-47
2024/01/01 12:06:04;;;;;;;;;;;6.10;91.30;;;;;;4996029;28;86886;-46
2024/01/01 12:08:29;;;;;;;;;;;6.10;91.40;;;;;;5016154;28;90104;-48
2024/01/01 12:10:59;;;;;;;;;;;6.10;91.30;;;;;;4997051;28;87982;-46
2024/01/01 12:13:24;;;;;;;;;;;6.10;91.30;;;;;;4994681;28;88821;-48
2024/01/01 12:15:51;;;;;;;;;;;6.10;91.20;;;;;;4996937;28;87058;-46
2024/01/01 12:18:16;;;;;;;;;;;6.20;91.50;;;;;;5004083;28;86870;-47
2024/01/01 12:20:42;;;;;;;;;;;6.20;91.40;;;;;;5002136;28;88837;-46
2024/01/01 12:23:11;;;;;;;;;;;6.20;91.50;;;;;;5001739;28;87031;-47
2024/01/01 12:25:36;;;;;;;;;;;6.20;91.40;;;;;;4995386;28;88217;-46
2024/01/01 12:28:03;;;;;;;;;;;6.20;91.40;;;;;;4998594;28;88216;-47
2024/01/01 12:30:29;;;;;;;;;;;6.20;91.40;;;;;;4998486;28;86925;-46
2024/01/01 12:32:55;;;;;;;;;;;6.20;91.50;;;;;;4996460;28;87974;-47
2024/01/01 12:35:21;;;;;;;;;;;6.20;91.50;;;;;;4997684;28;88339;-46
2024/01/01 12:37:47;;;;;;;;;;;6.20;91.50;;;;;;5003323;28;87201;-46
2024/01/01 12:40:13;;;;;;;;;;;6.20;91.60;;;;;;4999933;28;88570;-47
2024/01/01 12:42:39;;;;;;;;;;;6.20;91.60;;;;;;4995263;28;87431;-46
2024/01/01 12:45:05;;;;;;;;;;;6.20;91.60;;;;;;5001294;28;88106;-46
2024/01/01 12:47:31;;;;;;;;;;;6.20;91.60;;;;;;5000744;28;88628;-46
2024/01/01 12:49:56;;;;;;;;;;;6.30;91.70;;;;;;4999580;28;87030;-47
2024/01/01 12:52:22;;;;;;;;;;;6.20;91.90;;;;;;4991235;28;86736;-48
2024/01/01 12:54:48;;;;;;;;;;;6.30;91.80;;;;;;4998280;28;87483;-47
2024/01/01 12:57:14;;;;;;;;;;;6.30;91.70;;;;;;4999230;28;87016;-46
2024/01/01 12:59:40;;;;;;;;;;;6.30;91.80;;;;;;4998381;28;87996;-46
2024/01/01 13:02:06;;;;;;;;;;;6.30;91.70;;;;;;4999656;28;87105;-47
2024/01/01 13:04:31;;;;;;;;;;;6.30;91.70;;;;;;4995325;28;86849;-48
2024/01/01 13:06:57;;;;;;;;;;;6.30;91.70;;;;;;4995872;28;87420;-47
2024/01/01 13:09:23;;;;;;;;;;;6.30;91.70;;;;;;4994047;28;87091;-47
2024/01/01 13:11:51;;;;;;;;;;;6.30;91.70;;;;;;4994495;28;87264;-46
2024/01/01 13:14:17;;;;;;;;;;;6.30;91.80;;;;;;4994474;28;88515;-46
2024/01/01 13:16:42;;;;;;;;;;;6.30;91.80;;;;;;4997692;28;86850;-46
2024/01/01 13:19:10;;;;;;;;;;;6.40;91.80;;;;;;4998181;28;87332;-48
2024/01/01 13:21:35;;;;;;;;;;;6.40;91.90;;;;;;5000620;28;87482;-46
2024/01/01 13:24:01;;;;;;;;;;;6.40;91.80;;;;;;5001091;28;87973;-46
2024/01/01 13:26:29;;;;;;;;;;;6.40;91.90;;;;;;4992401;28;87250;-47
2024/01/01 13:28:55;;;;;;;;;;;6.40;91.90;;;;;;4995751;28;87040;-47
2024/01/01 13:31:21;;;;;;;;;;;6.40;91.70;;;;;;4998730;28;88783;-46
2024/01/01 13:33:47;;;;;;;;;;;6.40;91.80;;;;;;4994897;28;88490;-47
2024/01/01 13:36:12;;;;;;;;;;;6.50;91.80;;;;;;4998730;28;87206;-47
2024/01/01 13:38:39;;;;;;;;;;;6.50;91.90;;;;;;4999763;28;88118;-46
2024/01/01 13:41:05;;;;;;;;;;;6.50;92.00;;;;;;4995365;28;87871;-46
2024/01/01 13:43:30;;;;;;;;;;;6.50;92.30;;;;;;4995721;28;87140;-45
2024/01/01 13:45:56;;;;;;;;;;;6.50;91.80;;;;;;4998706;28;87411;-46
2024/01/01 13:48:21;;;;;;;;;;;6.50;92.00;;;;;;4994341;28;88698;-46
2024/01/01 13:50:47;;;;;;;;;;;6.50;92.00;;;;;;4996482;28;89023;-46
2024/01/01 13:53:12;;;;;;;;;;;6.50;92.00;;;;;;4994346;28;87541;-46
2024/01/01 13:55:38;;;;;;;;;;;6.50;92.00;;;;;;4998017;28;88466;-47
2024/01/01 13:58:04;;;;;;;;;;;6.50;91.90;;;;;;4997517;28;87248;-48
2024/01/01 14:00:30;;;;;;;;;;;6.50;91.90;;;;;;4997565;28;88511;-47
2024/01/01 14:02:55;;;;;;;;;;;6.60;92.00;;;;;;4994496;28;86948;-46
2024/01/01 14:05:22;;;;;;;;;;;6.50;92.00;;;;;;4999612;28;87818;-47
2024/01/01 14:07:48;;;;;;;;;;;6.60;91.90;;;;;;4998909;28;86998;-46
2024/01/01 14:10:15;;;;;;;;;;;6.60;91.90;;;;;;4994933;28;88146;-46
2024/01/01 14:12:41;;;;;;;;;;;6.60;92.00;;;;;;4999238;28;89359;-47
2024/01/01 14:15:07;;;;;;;;;;;6.60;91.90;;;;;;5001238;28;86978;-47
2024/01/01 14:17:32;;;;;;;;;;;6.60;92.00;;;;;;4999401;28;88738;-47
2024/01/01 14:19:58;;;;;;;;;;;6.70;92.20;;;;;;5001761;28;87305;-47
2024/01/01 14:22:24;;;;;;;;;;;6.60;91.90;;;;;;4998908;28;87082;-46
2024/01/01 14:24:49;;;;;;;;;;;6.60;92.00;;;;;;5006071;28;87422;-46
2024/01/01 14:27:16;;;;;;;;;;;6.60;92.00;;;;;;4999328;28;87067;-48